createdAt,value
2022-08-05T00:00:16.706Z,97263.84
2022-08-05T00:02:50.925Z,97247.63
2022-08-05T00:06:03.300Z,97240.16
2022-08-05T00:08:32.933Z,97246.16
2022-08-05T00:11:00.533Z,97241.97
2022-08-05T00:13:38.334Z,97257.44
2022-08-05T00:16:08.569Z,97247.19
2022-08-05T00:18:37.861Z,97253.88
2022-08-05T00:21:08.323Z,97248.84
2022-08-05T00:23:46.102Z,97242.78
2022-08-05T00:26:22.095Z,97240.06
2022-08-05T00:28:50.991Z,97231.03
2022-08-05T00:31:53.064Z,97231.44
2022-08-05T00:34:54.966Z,97231.59
2022-08-05T00:37:10.691Z,97224.53
2022-08-05T00:39:44.133Z,97223.41
2022-08-05T00:42:32.643Z,97207.94
2022-08-05T00:45:01.132Z,97207.72
2022-08-05T00:47:29.754Z,97205.59
2022-08-05T00:50:18.109Z,97208.75
2022-08-05T00:52:50.695Z,97214.59
2022-08-05T00:55:21.801Z,97211.03
2022-08-05T00:57:58.594Z,97209.78
2022-08-05T01:00:28.136Z,97210.38
2022-08-05T01:02:56.703Z,97217.34
2022-08-05T01:05:27.548Z,97214.63
2022-08-05T01:08:40.968Z,97210.00
2022-08-05T01:10:51.711Z,97211.47
2022-08-05T01:13:27.590Z,97206.25
2022-08-05T01:16:21.120Z,97215.91
2022-08-05T01:18:57.959Z,97208.56
2022-08-05T01:21:38.729Z,97207.72
2022-08-05T01:24:13.428Z,97213.56
2022-08-05T01:26:49.644Z,97206.06
2022-08-05T01:29:22.981Z,97208.09
2022-08-05T01:31:54.008Z,97211.66
2022-08-05T01:34:26.942Z,97218.97
2022-08-05T01:37:00.665Z,97228.66
2022-08-05T01:39:45.693Z,97231.78
2022-08-05T01:42:16.157Z,97219.25
2022-08-05T01:44:54.228Z,97215.44
2022-08-05T01:47:23.228Z,97216.09
2022-08-05T01:50:01.736Z,97222.38
2022-08-05T01:52:31.348Z,97217.59
2022-08-05T01:55:04.361Z,97228.88
2022-08-05T01:58:10.382Z,97220.88
2022-08-05T02:00:30.469Z,97222.94
2022-08-05T02:03:00.609Z,97220.88
2022-08-05T02:05:34.064Z,97227.13
2022-08-05T02:08:03.055Z,97233.38
2022-08-05T02:10:34.935Z,97235.72
2022-08-05T02:13:04.978Z,97241.94
2022-08-05T02:15:48.262Z,97230.75
2022-08-05T02:18:32.146Z,97234.69
2022-08-05T02:21:04.825Z,97239.81
2022-08-05T02:23:35.648Z,97250.25
2022-08-05T02:26:04.819Z,97258.00
2022-08-05T02:28:38.100Z,97269.25
2022-08-05T02:31:13.123Z,97287.09
2022-08-05T02:33:45.123Z,97287.22
2022-08-05T02:36:19.080Z,97302.66
2022-08-05T02:38:53.460Z,97309.53
2022-08-05T02:41:23.129Z,97310.44
2022-08-05T02:44:02.291Z,97314.84
2022-08-05T02:46:53.595Z,97324.63
2022-08-05T02:49:24.989Z,97325.69
2022-08-05T02:52:04.331Z,97331.50
2022-08-05T02:54:37.129Z,97330.81
2022-08-05T02:57:10.394Z,97351.47
2022-08-05T02:59:55.433Z,97366.66
2022-08-05T03:02:27.857Z,97371.72
2022-08-05T03:04:56.436Z,97362.47
2022-08-05T03:08:00.372Z,97367.34
2022-08-05T03:10:13.379Z,97384.78
2022-08-05T03:12:42.007Z,97394.72
2022-08-05T03:15:12.292Z,97401.31
2022-08-05T03:17:44.831Z,97411.34
2022-08-05T03:20:13.806Z,97401.25
2022-08-05T03:22:44.052Z,97410.63
2022-08-05T03:25:33.176Z,97440.34
2022-08-05T03:28:05.217Z,97448.69
2022-08-05T03:30:34.436Z,97388.22
2022-08-05T03:33:05.749Z,97327.31
2022-08-05T03:35:41.597Z,97289.34
2022-08-05T03:38:12.085Z,97269.28
2022-08-05T03:40:45.247Z,97253.28
2022-08-05T03:44:09.269Z,97260.22
2022-08-05T03:46:04.534Z,97295.59
2022-08-05T03:48:35.683Z,97341.13
2022-08-05T03:52:36.556Z,97344.16
2022-08-05T03:55:34.249Z,97337.22
2022-08-05T03:56:50.016Z,97333.91
2022-08-05T03:59:20.320Z,97341.22
2022-08-05T04:01:50.447Z,97327.69
2022-08-05T04:04:21.364Z,97322.53
2022-08-05T04:06:51.361Z,97320.66
2022-08-05T04:09:25.953Z,97321.88
2022-08-05T04:11:56.449Z,97309.78
2022-08-05T04:14:29.799Z,97301.50
2022-08-05T04:17:02.120Z,97290.63
2022-08-05T04:19:32.829Z,97304.16
2022-08-05T04:22:08.713Z,97298.06
2022-08-05T04:24:44.005Z,97299.84
2022-08-05T04:27:13.565Z,97293.06
2022-08-05T04:29:41.996Z,97291.19
2022-08-05T04:32:10.757Z,97287.75
2022-08-05T04:34:42.837Z,97287.69
2022-08-05T04:37:12.723Z,97285.69
2022-08-05T04:39:41.300Z,97289.16
2022-08-05T04:42:10.500Z,97287.84
2022-08-05T04:44:41.118Z,97286.91
2022-08-05T04:47:10.446Z,97279.81
2022-08-05T04:50:02.598Z,97278.19
2022-08-05T04:52:33.352Z,97261.53
2022-08-05T04:55:13.789Z,97258.53
2022-08-05T04:57:47.704Z,97263.53
2022-08-05T05:00:17.020Z,97265.47
2022-08-05T05:02:47.724Z,97282.78
2022-08-05T05:05:34.652Z,97292.25
2022-08-05T05:08:42.735Z,97269.94
2022-08-05T05:11:11.740Z,97257.63
2022-08-05T05:13:43.645Z,97271.63
2022-08-05T05:16:12.256Z,97278.00
2022-08-05T05:19:08.996Z,97269.34
2022-08-05T05:21:34.613Z,97280.72
2022-08-05T05:24:08.954Z,97290.56
2022-08-05T05:26:37.849Z,97311.59
2022-08-05T05:29:14.371Z,97322.06
2022-08-05T05:31:46.313Z,97317.66
2022-08-05T05:34:15.638Z,97331.66
2022-08-05T05:36:47.046Z,97328.47
2022-08-05T05:39:19.185Z,97323.16
2022-08-05T05:41:54.105Z,97330.59
2022-08-05T05:44:37.555Z,97326.16
2022-08-05T05:47:21.330Z,97314.06
2022-08-05T05:49:52.545Z,97320.22
2022-08-05T05:52:29.919Z,97318.44
2022-08-05T05:55:01.922Z,97324.22
2022-08-05T05:57:51.976Z,97335.66
2022-08-05T06:00:21.974Z,97333.06
2022-08-05T06:03:00.832Z,97342.97
2022-08-05T06:05:29.542Z,97351.44
2022-08-05T06:08:02.278Z,97351.97
2022-08-05T06:10:36.346Z,97348.53
2022-08-05T06:13:05.536Z,97349.56
2022-08-05T06:16:30.547Z,97353.41
2022-08-05T06:18:31.002Z,97354.63
2022-08-05T06:21:00.268Z,97351.59
2022-08-05T06:23:32.250Z,97344.41
2022-08-05T06:26:21.669Z,97335.94
2022-08-05T06:28:53.217Z,97338.97
2022-08-05T06:31:22.600Z,97341.13
2022-08-05T06:34:07.634Z,97346.63
2022-08-05T06:36:57.218Z,97349.41
2022-08-05T06:39:27.901Z,97353.00
2022-08-05T06:41:58.939Z,97357.13
2022-08-05T06:44:28.400Z,97358.19
2022-08-05T06:46:56.774Z,97359.75
2022-08-05T06:50:01.476Z,97359.53
2022-08-05T06:52:36.794Z,97359.53
2022-08-05T06:55:03.362Z,97360.13
2022-08-05T06:58:03.281Z,97350.34
2022-08-05T07:00:22.248Z,97363.41
2022-08-05T07:02:53.602Z,97368.84
2022-08-05T07:05:36.884Z,97364.66
2022-08-05T07:08:06.747Z,97363.81
2022-08-05T07:10:52.410Z,97376.13
2022-08-05T07:13:57.668Z,97369.50
2022-08-05T07:17:57.076Z,97370.91
2022-08-05T07:20:05.773Z,97372.66
2022-08-05T07:22:15.998Z,97374.03
2022-08-05T07:24:52.413Z,97390.41
2022-08-05T07:27:23.561Z,97389.09
2022-08-05T07:30:24.084Z,97396.84
2022-08-05T07:32:53.279Z,97407.44
2022-08-05T07:35:55.713Z,97397.56
2022-08-05T07:38:12.320Z,97403.63
2022-08-05T07:40:44.512Z,97408.75
2022-08-05T07:43:20.480Z,97413.97
2022-08-05T07:45:57.585Z,97421.69
2022-08-05T07:49:02.172Z,97421.94
2022-08-05T07:51:23.127Z,97429.06
2022-08-05T07:54:04.769Z,97432.03
2022-08-05T07:57:00.691Z,97427.13
2022-08-05T07:59:38.202Z,97428.13
2022-08-05T08:02:15.467Z,97433.66
2022-08-05T08:04:46.460Z,97430.94
2022-08-05T08:07:15.452Z,97436.75
2022-08-05T08:09:44.114Z,97439.47
2022-08-05T08:12:37.284Z,97450.63
2022-08-05T08:15:04.457Z,97456.03
2022-08-05T08:17:35.271Z,97457.38
2022-08-05T08:20:44.086Z,97459.78
2022-08-05T08:22:55.760Z,97467.28
2022-08-05T08:25:27.157Z,97466.34
2022-08-05T08:28:18.763Z,97464.56
2022-08-05T08:31:02.749Z,97469.81
2022-08-05T08:33:37.429Z,97473.56
2022-08-05T08:36:38.255Z,97490.22
2022-08-05T08:38:57.019Z,97489.38
2022-08-05T08:41:51.168Z,97502.84
2022-08-05T08:45:18.645Z,97498.44
2022-08-05T08:47:47.750Z,97513.34
2022-08-05T08:50:22.916Z,97505.97
2022-08-05T08:52:51.628Z,97516.03
2022-08-05T08:56:01.756Z,97518.94
2022-08-05T08:58:13.117Z,97523.09
2022-08-05T09:00:42.659Z,97523.25
2022-08-05T09:03:16.099Z,97537.16
2022-08-05T09:06:07.997Z,97536.31
2022-08-05T09:08:37.231Z,97554.28
2022-08-05T09:11:08.961Z,97552.47
2022-08-05T09:14:10.183Z,97551.50
2022-08-05T09:16:30.889Z,97562.00
2022-08-05T09:19:00.608Z,97561.66
2022-08-05T09:22:23.519Z,97566.94
2022-08-05T09:24:24.375Z,97566.81
2022-08-05T09:26:57.337Z,97562.06
2022-08-05T09:29:47.840Z,97565.09
2022-08-05T09:32:40.886Z,97569.34
2022-08-05T09:35:26.562Z,97574.75
2022-08-05T09:38:17.090Z,97578.34
2022-08-05T09:40:53.892Z,97571.72
2022-08-05T09:43:40.931Z,97577.66
2022-08-05T09:46:27.816Z,97576.63
2022-08-05T09:49:07.206Z,97572.59
2022-08-05T09:51:39.870Z,97580.75
2022-08-05T09:54:11.599Z,97577.03
2022-08-05T09:56:51.853Z,97579.91
2022-08-05T09:59:20.891Z,97584.44
2022-08-05T10:01:57.946Z,97590.38
2022-08-05T10:04:36.146Z,97595.25
2022-08-05T10:07:20.281Z,97598.69
2022-08-05T10:10:13.952Z,97601.19
2022-08-05T10:12:49.586Z,97610.88
2022-08-05T10:15:23.612Z,97612.88
2022-08-05T10:18:07.392Z,97620.31
2022-08-05T10:20:37.498Z,97617.28
2022-08-05T10:23:21.797Z,97630.50
2022-08-05T10:25:56.214Z,97632.03
2022-08-05T10:28:30.360Z,97636.91
2022-08-05T10:32:49.465Z,97625.59
2022-08-05T10:33:52.285Z,97633.69
2022-08-05T10:36:26.086Z,97637.25
2022-08-05T10:39:00.986Z,97635.56
2022-08-05T10:41:44.889Z,97637.06
2022-08-05T10:44:18.533Z,97635.56
2022-08-05T10:46:50.575Z,97639.22
2022-08-05T10:49:26.838Z,97642.81
2022-08-05T10:52:00.434Z,97648.38
2022-08-05T10:54:56.806Z,97660.09
2022-08-05T10:57:29.673Z,97665.50
2022-08-05T11:00:17.926Z,97677.31
2022-08-05T11:03:23.747Z,97681.22
2022-08-05T11:06:06.189Z,97681.41
2022-08-05T11:08:39.266Z,97689.50
2022-08-05T11:11:52.453Z,97692.25
2022-08-05T11:14:56.338Z,97704.09
2022-08-05T11:17:57.566Z,97703.41
2022-08-05T11:20:37.462Z,97703.31
2022-08-05T11:23:33.724Z,97717.91
2022-08-05T11:26:28.361Z,97707.72
2022-08-05T11:29:06.937Z,97711.63
2022-08-05T11:31:57.686Z,97717.16
2022-08-05T11:34:39.685Z,97720.28
2022-08-05T11:38:26.093Z,97725.31
2022-08-05T11:40:02.832Z,97722.66
2022-08-05T11:42:37.777Z,97731.41
2022-08-05T11:45:23.374Z,97729.78
2022-08-05T11:47:59.036Z,97727.94
2022-08-05T11:50:27.838Z,97726.22
2022-08-05T11:52:58.216Z,97731.03
2022-08-05T11:55:32.206Z,97727.25
2022-08-05T11:58:09.327Z,97726.34
2022-08-05T12:00:44.312Z,97723.44
2022-08-05T12:03:28.429Z,97720.56
2022-08-05T12:06:01.466Z,97712.78
2022-08-05T12:08:31.583Z,97711.47
2022-08-05T12:11:03.447Z,97717.69
2022-08-05T12:13:48.865Z,97712.22
2022-08-05T12:16:25.550Z,97718.09
2022-08-05T12:18:55.832Z,97720.03
2022-08-05T12:21:26.728Z,97711.53
2022-08-05T12:24:04.982Z,97714.63
2022-08-05T12:26:36.436Z,97708.03
2022-08-05T12:29:05.660Z,97712.66
2022-08-05T12:31:45.900Z,97721.19
2022-08-05T12:34:21.147Z,97708.44
2022-08-05T12:36:50.280Z,97716.97
2022-08-05T12:39:19.362Z,97717.47
2022-08-05T12:41:48.746Z,97727.97
2022-08-05T12:44:21.622Z,97731.47
2022-08-05T12:47:02.618Z,97731.13
2022-08-05T12:50:04.853Z,97734.69
2022-08-05T12:52:35.321Z,97740.03
2022-08-05T12:55:21.977Z,97745.59
2022-08-05T12:58:48.441Z,97742.69
2022-08-05T13:02:03.552Z,97748.72
2022-08-05T13:03:33.456Z,97754.06
2022-08-05T13:06:02.092Z,97754.94
2022-08-05T13:08:32.302Z,97762.19
2022-08-05T13:11:02.167Z,97752.75
2022-08-05T13:14:06.602Z,97764.19
2022-08-05T13:16:20.729Z,97768.75
2022-08-05T13:18:57.593Z,97766.31
2022-08-05T13:21:27.743Z,97770.28
2022-08-05T13:23:58.740Z,97770.97
2022-08-05T13:26:30.222Z,97786.09
2022-08-05T13:28:59.338Z,97780.63
2022-08-05T13:31:33.929Z,97767.81
2022-08-05T13:34:22.358Z,97769.25
2022-08-05T13:37:00.629Z,97773.66
2022-08-05T13:40:13.705Z,97772.63
2022-08-05T13:42:17.987Z,97764.25
2022-08-05T13:44:46.758Z,97782.13
2022-08-05T13:47:35.110Z,97784.50
2022-08-05T13:50:06.879Z,97784.75
2022-08-05T13:52:39.687Z,97788.84
2022-08-05T13:55:10.205Z,97780.84
2022-08-05T13:57:50.639Z,97781.25
2022-08-05T14:00:27.493Z,97794.25
2022-08-05T14:02:56.964Z,97790.84
2022-08-05T14:05:48.483Z,97791.59
2022-08-05T14:08:20.727Z,97793.97
2022-08-05T14:10:59.749Z,97789.72
2022-08-05T14:13:44.159Z,97790.22
2022-08-05T14:16:19.268Z,97796.09
2022-08-05T14:18:48.057Z,97797.56
2022-08-05T14:22:06.763Z,97795.88
2022-08-05T14:24:10.007Z,97801.19
2022-08-05T14:26:51.349Z,97810.31
2022-08-05T14:29:26.941Z,97810.94
2022-08-05T14:32:12.991Z,97797.69
2022-08-05T14:34:45.501Z,97805.41
2022-08-05T14:37:15.766Z,97799.94
2022-08-05T14:39:49.501Z,97797.97
2022-08-05T14:42:20.765Z,97811.41
2022-08-05T14:44:49.883Z,97803.31
2022-08-05T14:47:58.545Z,97806.00
2022-08-05T14:50:18.256Z,97814.22
2022-08-05T14:52:53.623Z,97820.22
2022-08-05T14:55:38.392Z,97812.00
2022-08-05T14:58:11.264Z,97816.84
2022-08-05T15:00:59.432Z,97822.66
2022-08-05T15:03:33.573Z,97820.09
2022-08-05T15:06:07.035Z,97818.69
2022-08-05T15:09:01.370Z,97815.88
2022-08-05T15:11:51.752Z,97819.09
2022-08-05T15:14:35.814Z,97821.47
2022-08-05T15:17:14.725Z,97825.34
2022-08-05T15:19:57.938Z,97826.59
2022-08-05T15:22:27.111Z,97827.69
2022-08-05T15:24:59.291Z,97823.97
2022-08-05T15:27:36.052Z,97827.53
2022-08-05T15:30:05.196Z,97830.91
2022-08-05T15:32:33.714Z,97832.81
2022-08-05T15:35:04.188Z,97823.66
2022-08-05T15:38:34.952Z,97832.41
2022-08-05T15:41:03.339Z,97826.78
2022-08-05T15:43:20.635Z,97840.75
2022-08-05T15:46:00.510Z,97829.41
2022-08-05T15:48:30.144Z,97828.31
2022-08-05T15:51:03.337Z,97833.00
2022-08-05T15:53:38.017Z,97827.78
2022-08-05T15:56:20.437Z,97830.44
2022-08-05T15:58:49.864Z,97825.72
2022-08-05T16:01:20.192Z,97822.53
2022-08-05T16:03:57.680Z,97829.19
2022-08-05T16:06:26.358Z,97826.97
2022-08-05T16:08:56.429Z,97829.00
2022-08-05T16:11:42.601Z,97835.53
2022-08-05T16:14:17.055Z,97841.94
2022-08-05T16:16:46.768Z,97839.22
2022-08-05T16:19:25.887Z,97837.50
2022-08-05T16:22:04.643Z,97832.75
2022-08-05T16:24:40.407Z,97836.25
2022-08-05T16:27:15.773Z,97831.03
2022-08-05T16:29:51.014Z,97836.34
2022-08-05T16:32:28.344Z,97842.34
2022-08-05T16:34:58.909Z,97845.97
2022-08-05T16:38:03.269Z,97837.84
2022-08-05T16:40:24.752Z,97846.78
2022-08-05T16:42:56.505Z,97851.53
2022-08-05T16:46:04.729Z,97857.84
2022-08-05T16:48:25.606Z,97857.88
2022-08-05T16:51:01.858Z,97859.94
2022-08-05T16:53:31.841Z,97859.25
2022-08-05T16:56:18.966Z,97860.88
2022-08-05T16:58:49.439Z,97870.31
2022-08-05T17:01:19.031Z,97864.00
2022-08-05T17:03:47.751Z,97880.94
2022-08-05T17:06:16.826Z,97877.38
2022-08-05T17:08:53.755Z,97875.16
2022-08-05T17:11:23.502Z,97873.13
2022-08-05T17:14:00.685Z,97884.59
2022-08-05T17:16:36.446Z,97889.81
2022-08-05T17:19:07.697Z,97889.59
2022-08-05T17:21:39.556Z,97891.22
2022-08-05T17:24:19.508Z,97900.13
2022-08-05T17:26:58.168Z,97902.84
2022-08-05T17:32:17.276Z,97906.19
2022-08-05T17:34:48.210Z,97906.69
2022-08-05T17:37:39.324Z,97920.13
2022-08-05T17:40:10.133Z,97919.38
2022-08-05T17:42:41.782Z,97921.44
2022-08-05T17:45:22.040Z,97928.03
2022-08-05T17:47:54.639Z,97927.72
2022-08-05T17:50:28.771Z,97923.88
2022-08-05T17:53:00.398Z,97928.50
2022-08-05T17:55:37.377Z,97933.22
2022-08-05T17:58:09.691Z,97934.06
2022-08-05T18:00:44.455Z,97940.59
2022-08-05T18:03:28.055Z,97944.81
2022-08-05T18:06:05.087Z,97951.97
2022-08-05T18:08:34.235Z,97940.59
2022-08-05T18:11:03.410Z,97948.78
2022-08-05T18:13:44.066Z,97956.47
2022-08-05T18:16:14.494Z,97959.75
2022-08-05T18:18:47.827Z,97967.81
2022-08-05T18:21:21.031Z,97968.97
2022-08-05T18:23:53.736Z,97971.19
2022-08-05T18:26:27.682Z,97981.38
2022-08-05T18:28:58.414Z,97981.78
2022-08-05T18:31:32.938Z,97984.69
2022-08-05T18:34:06.048Z,97987.56
2022-08-05T18:36:36.306Z,97987.75
2022-08-05T18:39:06.593Z,97998.28
2022-08-05T18:42:00.467Z,98004.06
2022-08-05T18:44:34.759Z,98000.53
2022-08-05T18:47:05.200Z,98004.94
2022-08-05T18:49:57.974Z,98005.44
2022-08-05T18:52:35.635Z,98008.50
2022-08-05T18:55:05.355Z,98011.75
2022-08-05T18:57:43.484Z,98008.50
2022-08-05T19:00:27.150Z,98009.00
2022-08-05T19:03:03.894Z,98000.00
2022-08-05T19:06:13.043Z,98000.81
2022-08-05T19:08:30.124Z,98009.47
2022-08-05T19:10:59.549Z,98012.34
2022-08-05T19:14:00.728Z,98015.53
2022-08-05T19:16:36.889Z,98023.00
2022-08-05T19:19:20.747Z,98025.88
2022-08-05T19:21:51.443Z,98041.91
2022-08-05T19:24:34.318Z,98033.31
2022-08-05T19:27:08.289Z,98040.84
2022-08-05T19:29:39.427Z,98045.28
2022-08-05T19:32:11.098Z,98047.09
2022-08-05T19:34:54.286Z,98063.03
2022-08-05T19:37:29.973Z,98067.06
2022-08-05T19:40:08.009Z,98071.84
2022-08-05T19:42:38.814Z,98069.13
2022-08-05T19:45:08.396Z,98078.03
2022-08-05T19:47:43.355Z,98084.50
2022-08-05T19:50:35.178Z,98089.91
2022-08-05T19:53:09.268Z,98098.72
2022-08-05T19:56:15.093Z,98098.84
2022-08-05T19:58:29.065Z,98100.78
2022-08-05T20:00:58.900Z,98111.78
2022-08-05T20:03:27.513Z,98108.88
2022-08-05T20:06:15.569Z,98111.38
2022-08-05T20:08:59.799Z,98121.78
2022-08-05T20:11:34.485Z,98120.28
2022-08-05T20:14:12.469Z,98123.72
2022-08-05T20:16:43.105Z,98119.88
2022-08-05T20:19:11.763Z,98127.63
2022-08-05T20:21:44.121Z,98133.88
2022-08-05T20:24:14.444Z,98127.22
2022-08-05T20:26:44.412Z,98135.25
2022-08-05T20:29:27.561Z,98136.34
2022-08-05T20:31:58.238Z,98142.94
2022-08-05T20:34:27.967Z,98145.72
2022-08-05T20:37:00.599Z,98142.13
2022-08-05T20:39:36.642Z,98152.72
2022-08-05T20:42:05.525Z,98153.06
2022-08-05T20:44:37.762Z,98160.19
2022-08-05T20:47:07.608Z,98156.94
2022-08-05T20:49:38.067Z,98168.16
2022-08-05T20:52:10.626Z,98165.66
2022-08-05T20:54:43.572Z,98166.53
2022-08-05T20:57:43.511Z,98172.22
2022-08-05T21:00:40.221Z,98173.78
2022-08-05T21:03:07.366Z,98179.03
2022-08-05T21:05:53.593Z,98177.25
2022-08-05T21:08:26.721Z,98177.41
2022-08-05T21:11:12.082Z,98175.19
2022-08-05T21:13:56.516Z,98177.16
2022-08-05T21:16:29.818Z,98181.09
2022-08-05T21:19:00.660Z,98175.28
2022-08-05T21:21:44.026Z,98182.94
2022-08-05T21:24:20.050Z,98176.44
2022-08-05T21:26:58.130Z,98187.25
2022-08-05T21:29:32.078Z,98183.56
2022-08-05T21:32:02.624Z,98192.81
2022-08-05T21:34:31.476Z,98191.00
2022-08-05T21:37:00.405Z,98207.50
2022-08-05T21:39:30.502Z,98203.06
2022-08-05T21:42:03.006Z,98209.47
2022-08-05T21:44:31.939Z,98206.97
2022-08-05T21:47:00.970Z,98208.09
2022-08-05T21:49:48.314Z,98201.13
2022-08-05T21:52:27.549Z,98212.41
2022-08-05T21:55:07.006Z,98221.34
2022-08-05T21:57:36.147Z,98214.66
2022-08-05T22:00:07.089Z,98220.22
2022-08-05T22:02:42.482Z,98218.22
2022-08-05T22:05:11.528Z,98213.69
2022-08-05T22:07:58.195Z,98219.63
2022-08-05T22:10:29.639Z,98222.06
2022-08-05T22:13:08.676Z,98230.16
2022-08-05T22:16:01.808Z,98227.47
2022-08-05T22:18:25.982Z,98226.19
2022-08-05T22:20:55.891Z,98227.50
2022-08-05T22:24:01.850Z,98236.97
2022-08-05T22:27:06.885Z,98232.44
2022-08-05T22:29:40.412Z,98230.31
2022-08-05T22:32:09.917Z,98237.28
2022-08-05T22:34:38.443Z,98241.25
2022-08-05T22:37:08.870Z,98244.66
2022-08-05T22:39:39.008Z,98247.50
2022-08-05T22:42:11.836Z,98244.94
2022-08-05T22:44:42.670Z,98246.78
2022-08-05T22:47:29.115Z,98243.38
2022-08-05T22:50:20.671Z,98247.94
2022-08-05T22:52:48.247Z,98253.84
2022-08-05T22:55:18.905Z,98261.66
2022-08-05T22:57:49.856Z,98258.13
2022-08-05T23:00:20.798Z,98260.94
2022-08-05T23:02:49.790Z,98260.38
2022-08-05T23:05:18.746Z,98267.47
2022-08-05T23:07:48.882Z,98269.84
2022-08-05T23:10:19.726Z,98270.84
2022-08-05T23:12:51.251Z,98277.94
2022-08-05T23:15:27.178Z,98286.63
2022-08-05T23:18:00.689Z,98284.31
2022-08-05T23:20:31.111Z,98290.41
2022-08-05T23:22:59.667Z,98282.63
2022-08-05T23:25:52.714Z,98292.91
2022-08-05T23:28:17.589Z,98295.53
2022-08-05T23:30:53.651Z,98294.94
2022-08-05T23:34:03.245Z,98293.31
2022-08-05T23:36:13.480Z,98297.47
2022-08-05T23:38:43.069Z,98308.03
2022-08-05T23:41:12.861Z,98307.19
2022-08-05T23:44:05.028Z,98315.72
2022-08-05T23:46:31.068Z,98316.38
2022-08-05T23:49:01.923Z,98320.47
2022-08-05T23:51:58.763Z,98325.88
2022-08-05T23:54:30.415Z,98325.44
2022-08-05T23:57:05.375Z,98330.94
